Time;durP1;ratioP1;P1;durP2;ratioP2;P2;SDS_P1;SDS_P2;PMS_P1;PMS_P2;Temp;Humidity;BMP_temperature;BMP_pressure;BME280_temperature;BME280_humidity;BME280_pressure;Samples;Min_cycle;Max_cycle;Signal;HPM_P1;HPM_P2
2022/03/01 00:01:39;;;;;;;2.53;2.10;;;;;;;20.23;44.56;101873.72;20658208;28;102155;-77
2022/03/01 00:11:41;;;;;;;3.78;2.38;;;;;;;20.18;44.43;101875.72;20657409;28;99220;-77
2022/03/01 00:21:42;;;;;;;3.38;2.42;;;;;;;20.14;44.51;101872.38;20649555;28;98329;-77
2022/03/01 00:31:42;;;;;;;2.70;2.42;;;;;;;20.11;44.46;101868.13;20648742;27;100625;-77
2022/03/01 00:41:43;;;;;;;2.92;2.10;;;;;;;20.06;44.33;101867.50;20653696;28;98173;-77
2022/03/01 00:51:43;;;;;;;3.08;2.40;;;;;;;20.03;44.24;101862.41;20651654;28;97862;-77
2022/03/01 01:01:44;;;;;;;2.53;2.15;;;;;;;20.01;44.38;101845.84;20651658;27;98869;-77
2022/03/01 01:11:44;;;;;;;2.67;2.28;;;;;;;19.98;44.64;101856.50;20656075;28;100167;-77
2022/03/01 01:32:25;;;;;;;2.50;2.10;;;;;;;19.91;44.32;101855.09;20562885;28;98439;-77
2022/03/01 01:42:25;;;;;;;2.83;2.20;;;;;;;19.90;44.13;101850.78;20616197;28;98377;-78
2022/03/01 01:52:26;;;;;;;2.70;2.28;;;;;;;19.87;43.92;101845.66;20649502;28;101119;-77
2022/03/01 02:02:27;;;;;;;2.08;1.88;;;;;;;19.84;44.14;101838.78;20653684;28;98073;-77
2022/03/01 02:12:27;;;;;;;2.27;1.93;;;;;;;19.80;43.99;101838.06;20650366;28;98820;-78
2022/03/01 02:22:33;;;;;;;2.38;1.95;;;;;;;19.80;43.99;101839.84;20652195;28;100650;-76
2022/03/01 02:32:35;;;;;;;2.60;1.90;;;;;;;19.77;44.05;101835.56;20657668;28;97565;-77
2022/03/01 02:42:37;;;;;;;2.30;1.98;;;;;;;19.76;43.89;101841.75;20661904;28;98412;-77
2022/03/01 02:52:39;;;;;;;2.70;1.93;;;;;;;19.76;43.43;101827.75;20677074;28;96985;-77
2022/03/01 03:02:40;;;;;;;2.40;1.95;;;;;;;19.74;43.62;101816.47;20666958;28;99423;-77
2022/03/01 03:12:41;;;;;;;2.55;2.05;;;;;;;19.72;43.47;101828.84;20661186;28;99531;-77
2022/03/01 03:22:41;;;;;;;2.20;2.00;;;;;;;19.70;43.59;101830.69;20668931;28;97620;-76
2022/03/01 03:32:44;;;;;;;2.60;1.90;;;;;;;19.69;43.79;101829.84;20661733;28;98115;-76
2022/03/01 03:42:45;;;;;;;2.20;2.00;;;;;;;19.70;43.75;101822.78;20661457;27;97422;-76
2022/03/01 03:52:45;;;;;;;2.88;1.98;;;;;;;19.68;43.64;101821.09;20659662;28;99846;-76
2022/03/01 04:02:50;;;;;;;3.03;1.75;;;;;;;19.68;43.31;101826.34;20653375;28;98480;-77
2022/03/01 04:12:51;;;;;;;1.90;1.70;;;;;;;19.69;43.44;101824.59;20661278;28;100900;-77
2022/03/01 04:22:51;;;;;;;2.33;1.60;;;;;;;19.67;43.19;101822.00;20659019;28;100565;-78
2022/03/01 04:32:52;;;;;;;1.77;1.67;;;;;;;19.66;43.74;101816.84;20659702;28;98351;-77
2022/03/01 04:42:52;;;;;;;1.90;1.70;;;;;;;19.67;43.34;101810.66;20664639;28;96929;-78
2022/03/01 04:52:54;;;;;;;2.50;1.73;;;;;;;19.64;43.47;101818.69;20656606;28;100908;-77
2022/03/01 05:02:54;;;;;;;2.17;1.77;;;;;;;19.63;43.59;101812.59;20652627;27;97068;-77
2022/03/01 05:12:58;;;;;;;2.17;1.92;;;;;;;19.76;44.32;101806.72;20660120;27;98178;-77
2022/03/01 05:22:58;;;;;;;;;;;;;;;19.86;44.81;101808.03;20660615;28;100218;-77
2022/03/01 05:32:59;;;;;;;1.88;1.58;;;;;;;19.96;45.33;101813.69;20668580;28;97141;-77
2022/03/01 05:43:00;;;;;;;4.97;1.70;;;;;;;20.02;44.79;101813.38;20663424;28;97965;-77
2022/03/01 05:53:01;;;;;;;4.90;1.58;;;;;;;20.09;44.24;101808.66;20659334;28;98950;-74
2022/03/01 06:03:01;;;;;;;11.32;2.85;;;;;;;20.12;44.00;101819.88;20663965;28;100638;-76
2022/03/01 06:13:02;;;;;;;8.23;2.80;;;;;;;20.06;42.04;101816.69;20656504;27;98504;-74
2022/03/01 06:23:02;;;;;;;9.25;2.80;;;;;;;20.18;42.32;101817.84;20649590;28;97979;-75
2022/03/01 06:33:02;;;;;;;11.45;3.50;;;;;;;19.98;39.02;101817.94;20644665;27;96935;-73
2022/03/01 06:43:03;;;;;;;11.48;2.97;;;;;;;20.14;37.06;101811.88;20634897;28;97648;-73
2022/03/01 06:53:04;;;;;;;9.82;3.53;;;;;;;20.25;40.45;101808.72;20630407;28;97375;-73
2022/03/01 07:03:05;;;;;;;10.00;4.30;;;;;;;20.30;41.31;101810.19;20640863;28;98024;-74
2022/03/01 07:13:05;;;;;;;8.88;3.90;;;;;;;20.39;41.41;101794.88;20636239;28;98452;-73
2022/03/01 07:23:06;;;;;;;11.30;3.88;;;;;;;20.43;41.52;101789.38;20649760;28;97519;-73
2022/03/01 07:33:06;;;;;;;7.88;4.85;;;;;;;20.47;41.75;101785.66;20649321;28;100551;-74
2022/03/01 07:43:07;;;;;;;7.65;3.80;;;;;;;20.52;41.93;101792.44;20649276;27;99879;-74
2022/03/01 07:53:08;;;;;;;16.83;4.60;;;;;;;20.59;42.66;101786.78;20638356;28;98260;-73
2022/03/01 08:03:08;;;;;;;5.88;4.13;;;;;;;20.61;42.15;101791.97;20651600;28;96881;-73
2022/03/01 08:13:09;;;;;;;6.90;4.03;;;;;;;20.64;41.70;101795.28;20654572;28;97105;-73
2022/03/01 08:23:10;;;;;;;8.50;3.70;;;;;;;20.68;41.40;101793.34;20644904;27;96939;-73
2022/03/01 08:33:10;;;;;;;8.70;4.22;;;;;;;20.72;41.45;101791.44;20650528;28;97521;-73
2022/03/01 08:43:12;;;;;;;7.78;4.70;;;;;;;20.77;41.14;101778.88;20650742;28;100705;-73
2022/03/01 08:53:13;;;;;;;7.10;5.00;;;;;;;20.81;40.82;101772.50;20635183;28;101606;-73
2022/03/01 09:03:13;;;;;;;12.73;4.90;;;;;;;20.82;41.69;101766.31;20641417;28;97443;-73
2022/03/01 09:13:14;;;;;;;7.22;3.88;;;;;;;20.84;41.53;101755.72;20638300;28;97157;-73
2022/03/01 09:23:14;;;;;;;6.45;4.30;;;;;;;20.89;41.77;101743.97;20639991;27;97427;-73
2022/03/01 09:33:15;;;;;;;7.22;3.90;;;;;;;20.89;41.41;101732.63;20642716;28;99258;-73
2022/03/01 09:43:15;;;;;;;6.43;3.60;;;;;;;20.89;41.98;101709.75;20652923;28;98123;-72
2022/03/01 09:53:16;;;;;;;6.03;3.63;;;;;;;20.91;41.44;101709.66;20659184;28;97153;-72
2022/03/01 10:03:19;;;;;;;4.30;3.65;;;;;;;20.95;41.25;101716.47;20655677;28;96933;-73
2022/03/01 10:13:27;;;;;;;4.63;3.30;;;;;;;21.01;41.12;101699.50;20652314;28;98842;-73
2022/03/01 10:23:27;;;;;;;5.00;3.08;;;;;;;21.09;41.17;101674.41;20650538;28;96923;-73
2022/03/01 10:33:28;;;;;;;5.25;3.20;;;;;;;21.09;41.11;101658.63;20644868;28;100946;-74
2022/03/01 10:43:29;;;;;;;4.82;2.90;;;;;;;21.11;41.50;101633.03;20643113;27;96976;-73
2022/03/01 10:53:31;;;;;;;6.35;3.15;;;;;;;21.19;41.79;101608.91;20639110;27;97214;-72
2022/03/01 11:03:31;;;;;;;4.37;2.70;;;;;;;21.29;41.49;101603.94;20655319;27;97850;-73
2022/03/01 11:13:35;;;;;;;2.97;2.50;;;;;;;21.39;41.73;101570.00;20676200;27;100564;-73
2022/03/01 11:23:36;;;;;;;3.63;2.40;;;;;;;21.48;40.88;101552.78;20659771;28;100131;-74
2022/03/01 11:33:36;;;;;;;4.47;2.80;;;;;;;21.51;41.03;101542.06;20660139;28;97447;-72
2022/03/01 11:43:39;;;;;;;4.37;2.37;;;;;;;21.60;41.21;101533.63;20655546;28;97183;-73
2022/03/01 11:53:44;;;;;;;3.95;2.47;;;;;;;21.68;40.85;101515.53;20658015;28;97145;-73
2022/03/01 12:03:49;;;;;;;3.17;2.20;;;;;;;21.75;40.67;101506.31;20656778;28;99585;-73
2022/03/01 12:13:49;;;;;;;4.28;2.00;;;;;;;21.81;40.72;101498.97;20648923;27;98642;-73
2022/03/01 12:23:52;;;;;;;3.47;2.00;;;;;;;21.84;40.55;101477.69;20644895;28;97529;-73
2022/03/01 12:33:57;;;;;;;;;;;;;;;21.90;40.79;101469.38;20652368;28;97707;-74
2022/03/01 12:44:03;;;;;;;2.55;2.33;;;;;;;21.97;40.73;101454.88;20646217;28;97633;-74
2022/03/01 12:54:09;;;;;;;3.15;2.13;;;;;;;22.02;40.36;101441.38;20656151;28;98209;-73
2022/03/01 13:04:10;;;;;;;2.42;1.92;;;;;;;22.07;40.54;101424.31;20660923;28;98261;-73
2022/03/01 13:14:16;;;;;;;3.10;1.90;;;;;;;22.11;40.45;101419.69;20651453;28;100710;-73
2022/03/01 13:24:20;;;;;;;12.38;2.22;;;;;;;22.12;40.00;101402.91;20646505;28;97566;-74
2022/03/01 13:34:24;;;;;;;6.55;2.28;;;;;;;22.18;39.88;101388.47;20646380;27;97244;-74
2022/03/01 13:44:29;;;;;;;5.28;2.17;;;;;;;21.96;31.70;101376.69;20642695;27;98962;-76
2022/03/01 13:54:29;;;;;;;7.18;2.10;;;;;;;22.10;36.38;101367.03;20657105;28;98383;-75
2022/03/01 14:04:30;;;;;;;6.63;2.30;;;;;;;22.16;37.37;101359.53;20671136;28;97036;-75
2022/03/01 14:14:30;;;;;;;3.88;1.90;;;;;;;22.22;38.05;101350.41;20664031;28;98839;-75
2022/03/01 14:24:31;;;;;;;3.70;1.70;;;;;;;22.23;38.63;101339.72;20659376;28;100880;-75
2022/03/01 14:34:32;;;;;;;2.20;1.60;;;;;;;22.23;38.88;101344.16;20657875;27;98050;-75
2022/03/01 14:44:33;;;;;;;1.85;1.50;;;;;;;22.23;38.62;101341.53;20684152;28;97812;-75
2022/03/01 14:54:33;;;;;;;2.15;1.58;;;;;;;22.22;38.80;101319.56;20701226;27;96921;-76
2022/03/01 15:04:34;;;;;;;2.37;1.73;;;;;;;22.20;38.89;101316.22;20676623;27;98123;-75
2022/03/01 15:14:34;;;;;;;2.17;1.75;;;;;;;22.10;38.82;101315.13;20674847;28;97762;-74
2022/03/01 15:24:36;;;;;;;2.15;1.67;;;;;;;21.96;38.92;101308.13;20675406;28;99627;-79
2022/03/01 15:34:37;;;;;;;2.65;1.70;;;;;;;21.85;38.88;101300.06;20674191;28;97615;-77
2022/03/01 15:44:38;;;;;;;2.67;1.77;;;;;;;21.74;39.28;101293.72;20687082;28;96972;-76
2022/03/01 15:54:39;;;;;;;4.18;1.88;;;;;;;21.66;38.67;101292.53;20661406;28;97900;-79
2022/03/01 16:04:39;;;;;;;4.85;1.85;;;;;;;21.62;38.91;101289.25;20627587;28;97826;-77
2022/03/01 16:14:40;;;;;;;9.45;2.70;;;;;;;21.54;40.39;101286.22;20645513;27;97155;-77
2022/03/01 16:24:42;;;;;;;9.05;2.65;;;;;;;21.50;39.80;101290.03;20647202;28;97855;-76
2022/03/01 16:34:43;;;;;;;10.30;2.63;;;;;;;21.44;40.04;101285.97;20653609;28;96795;-77
2022/03/01 16:44:43;;;;;;;5.57;2.50;;;;;;;21.36;39.90;101290.88;20646114;27;97046;-76
2022/03/01 16:54:43;;;;;;;5.40;2.53;;;;;;;21.28;40.28;101292.22;20644211;27;97498;-76
2022/03/01 17:04:44;;;;;;;4.43;2.20;;;;;;;21.22;40.62;101292.63;20641321;27;97188;-76
2022/03/01 17:14:44;;;;;;;7.72;2.67;;;;;;;21.25;39.76;101302.97;20661277;28;97979;-78
2022/03/01 17:24:45;;;;;;;8.55;2.60;;;;;;;21.35;40.34;101310.28;20671132;27;97188;-77
2022/03/01 17:34:49;;;;;;;15.45;4.97;;;;;;;21.40;39.75;101300.31;20665563;27;101269;-76
2022/03/01 17:44:50;;;;;;;11.93;5.38;;;;;;;21.49;40.40;101307.59;20677058;28;97382;-78
2022/03/01 17:54:51;;;;;;;18.33;5.38;;;;;;;21.56;40.93;101308.06;20674735;28;96909;-78
2022/03/01 18:04:52;;;;;;;12.90;5.20;;;;;;;21.58;41.53;101307.06;20670048;28;97026;-76
2022/03/01 18:14:52;;;;;;;8.93;5.00;;;;;;;21.64;41.37;101303.19;20665559;28;97517;-76
2022/03/01 18:24:53;;;;;;;8.77;4.90;;;;;;;21.66;41.43;101306.56;20664737;27;98893;-76
2022/03/01 18:34:53;;;;;;;11.63;5.65;;;;;;;21.71;41.69;101307.09;20657670;27;97465;-77
2022/03/01 18:44:54;;;;;;;17.63;6.85;;;;;;;21.73;41.42;101317.56;20650943;28;97719;-75
2022/03/01 18:54:55;;;;;;;14.48;6.43;;;;;;;21.77;42.84;101339.28;20642389;28;97506;-75
2022/03/01 19:04:55;;;;;;;14.45;6.65;;;;;;;21.76;43.17;101348.97;20636937;27;98790;-76
2022/03/01 19:14:57;;;;;;;15.95;6.60;;;;;;;;;;20653960;28;96925;-79
2022/03/01 19:24:58;;;;;;;19.47;6.57;;;;;;;21.75;43.31;101345.50;20669726;27;96732;-79
2022/03/01 19:34:59;;;;;;;15.00;6.75;;;;;;;21.67;43.59;101345.16;20670958;27;102301;-76
2022/03/01 19:45:05;;;;;;;15.85;7.38;;;;;;;21.59;42.56;101348.28;20676272;27;98127;-76
2022/03/01 19:55:08;;;;;;;17.98;8.93;;;;;;;21.50;43.38;101348.00;20660553;27;98524;-78
2022/03/01 20:05:10;;;;;;;15.18;6.55;;;;;;;21.43;41.73;101366.81;20656440;28;97769;-78
2022/03/01 20:15:10;;;;;;;12.40;6.30;;;;;;;21.35;42.14;101361.19;20676047;28;96953;-78
2022/03/01 20:25:11;;;;;;;10.70;5.75;;;;;;;21.30;42.08;101363.28;20657835;27;97934;-79
2022/03/01 20:35:15;;;;;;;12.02;5.93;;;;;;;21.25;41.84;101366.19;20662631;28;101063;-77
2022/03/01 20:45:18;;;;;;;9.60;5.20;;;;;;;21.20;41.45;101365.63;20661487;28;96918;-78
2022/03/01 20:55:20;;;;;;;10.95;5.57;;;;;;;21.16;41.75;101368.53;20656672;28;98515;-78
2022/03/01 21:05:22;;;;;;;8.77;4.97;;;;;;;21.12;42.08;101365.25;20645853;27;100218;-78
2022/03/01 21:15:25;;;;;;;10.90;5.15;;;;;;;21.10;41.96;101372.41;20665402;28;96973;-78
2022/03/01 21:25:26;;;;;;;8.13;4.53;;;;;;;21.03;42.17;101369.31;20647194;27;101269;-78
2022/03/01 21:35:27;;;;;;;7.20;4.28;;;;;;;20.95;42.53;101374.19;20654350;27;97649;-79
2022/03/01 21:45:28;;;;;;;8.80;4.90;;;;;;;20.90;42.90;101371.00;20662783;28;100323;-78
2022/03/01 21:55:29;;;;;;;8.75;4.47;;;;;;;20.83;42.91;101364.41;20664911;28;99146;-79
2022/03/01 22:05:30;;;;;;;7.07;4.10;;;;;;;20.79;42.88;101369.84;20641365;28;100974;-79
2022/03/01 22:15:32;;;;;;;6.28;4.05;;;;;;;20.73;43.22;101364.94;20646937;27;99789;-79
2022/03/01 22:25:32;;;;;;;6.38;3.90;;;;;;;20.69;43.24;101360.78;20646057;28;97994;-79
2022/03/01 22:35:34;;;;;;;6.50;3.72;;;;;;;20.66;43.07;101362.75;20645187;28;100852;-77
2022/03/01 22:45:36;;;;;;;8.05;3.80;;;;;;;20.62;43.29;101349.75;20650164;28;99942;-77
2022/03/01 22:55:39;;;;;;;6.30;3.90;;;;;;;20.57;43.12;101349.19;20652530;28;100614;-77
2022/03/01 23:05:39;;;;;;;6.07;3.60;;;;;;;20.56;43.19;101341.41;20653892;28;100036;-78
2022/03/01 23:15:40;;;;;;;5.20;3.47;;;;;;;20.52;42.83;101332.84;20658464;28;97008;-77
2022/03/01 23:25:40;;;;;;;5.82;3.53;;;;;;;20.51;42.69;101328.50;20659666;28;98548;-78
2022/03/01 23:35:43;;;;;;;5.50;3.50;;;;;;;20.43;43.24;101309.69;20652806;28;99857;-77
2022/03/01 23:45:43;;;;;;;4.82;3.30;;;;;;;20.40;42.99;101318.63;20656606;28;97475;-78
2022/03/01 23:55:44;;;;;;;5.25;3.28;;;;;;;20.37;42.74;101302.19;20659860;28;99541;-78
